SWA112 KCMH-KLGA
Flight info
| Callsign | SWA112 |
|---|---|
| Flight time | 1h 13m |
| Altitude | 33000 |
| Route | RDBUV NOWZU WWSHR CXR ETG MIP4 |
| Aircraft | B738/M-SADE2E3GIJ4RWZ/LB1D1 |
Departure
| Time | 2026-05-09 02:16 |
|---|---|
| Airport | John Glenn Columbus International Airport (KCMH) |
Arrival
| Time | 2026-05-09 03:30 |
|---|---|
| Airport | LaGuardia Airport (KLGA) |
| Time | Latitude | Longitude | Altitude | Speed | Heading |
|---|---|---|---|---|---|
| 2026-05-09 01:37 | 39.99646 | -82.88506 | 813 ft | 0 kts | 4° |
| 2026-05-09 01:39 | 39.99654 | -82.88619 | 813 ft | 0 kts | 4° |
| 2026-05-09 02:07 | 39.99626 | -82.88622 | 813 ft | 2 kts | 21° |
| 2026-05-09 02:07 | 39.99613 | -82.88632 | 813 ft | 2 kts | 42° |
| 2026-05-09 02:07 | 39.99604 | -82.88648 | 813 ft | 2 kts | 64° |
| 2026-05-09 02:07 | 39.99600 | -82.88666 | 813 ft | 2 kts | 86° |
| 2026-05-09 02:08 | 39.99600 | -82.88676 | 813 ft | 1 kts | 97° |
| 2026-05-09 02:08 | 39.99600 | -82.88680 | 813 ft | 0 kts | 94° |
| 2026-05-09 02:10 | 39.99600 | -82.88668 | 812 ft | 5 kts | 94° |
| 2026-05-09 02:10 | 39.99596 | -82.88602 | 812 ft | 8 kts | 93° |
| 2026-05-09 02:11 | 39.99596 | -82.88594 | 812 ft | 0 kts | 94° |
| 2026-05-09 02:11 | 39.99594 | -82.88567 | 812 ft | 9 kts | 93° |
| 2026-05-09 02:11 | 39.99588 | -82.88438 | 812 ft | 18 kts | 94° |
| 2026-05-09 02:11 | 39.99611 | -82.88276 | 812 ft | 17 kts | 77° |
| 2026-05-09 02:12 | 39.99609 | -82.88126 | 812 ft | 16 kts | 94° |
| 2026-05-09 02:12 | 39.99601 | -82.87984 | 812 ft | 15 kts | 94° |
| 2026-05-09 02:12 | 39.99665 | -82.87912 | 812 ft | 13 kts | 8° |
| 2026-05-09 02:12 | 39.99753 | -82.87904 | 812 ft | 12 kts | 4° |
| 2026-05-09 02:13 | 39.99832 | -82.87894 | 812 ft | 10 kts | 5° |
| 2026-05-09 02:13 | 39.99917 | -82.87897 | 806 ft | 14 kts | 337° |
| 2026-05-09 02:13 | 40.00005 | -82.87947 | 801 ft | 15 kts | 4° |
| 2026-05-09 02:13 | 40.00067 | -82.87940 | 799 ft | 0 kts | 4° |
| 2026-05-09 02:14 | 40.00099 | -82.87937 | 799 ft | 12 kts | 4° |
| 2026-05-09 02:14 | 40.00162 | -82.87982 | 798 ft | 8 kts | 281° |
| 2026-05-09 02:14 | 40.00163 | -82.87989 | 799 ft | 0 kts | 276° |
| 2026-05-09 02:15 | 40.00166 | -82.88024 | 799 ft | 18 kts | 275° |
| 2026-05-09 02:15 | 40.00194 | -82.88515 | 809 ft | 88 kts | 275° |
| 2026-05-09 02:15 | 40.00254 | -82.89580 | 815 ft | 146 kts | 274° |
| 2026-05-09 02:16 | 40.00326 | -82.91061 | 1045 ft | 173 kts | 275° |
| 2026-05-09 02:16 | 40.00364 | -82.92609 | 1675 ft | 178 kts | 273° |
| 2026-05-09 02:16 | 40.00376 | -82.94270 | 2154 ft | 190 kts | 272° |
| 2026-05-09 02:16 | 40.00389 | -82.96067 | 2576 ft | 205 kts | 273° |
| 2026-05-09 02:17 | 40.00444 | -82.97987 | 2974 ft | 220 kts | 280° |
| 2026-05-09 02:17 | 40.01134 | -82.99799 | 3366 ft | 233 kts | 318° |
| 2026-05-09 02:17 | 40.02597 | -83.00692 | 3942 ft | 240 kts | 354° |
| 2026-05-09 02:17 | 40.04234 | -83.00386 | 4591 ft | 247 kts | 21° |
| 2026-05-09 02:18 | 40.05789 | -82.99274 | 5022 ft | 264 kts | 31° |
| 2026-05-09 02:18 | 40.07375 | -82.97989 | 5634 ft | 273 kts | 30° |
| 2026-05-09 02:18 | 40.09037 | -82.96678 | 6267 ft | 281 kts | 28° |
| 2026-05-09 02:18 | 40.10746 | -82.95342 | 6883 ft | 290 kts | 28° |
| 2026-05-09 02:19 | 40.12483 | -82.93981 | 7549 ft | 295 kts | 28° |
| 2026-05-09 02:19 | 40.14259 | -82.92588 | 8214 ft | 300 kts | 28° |
| 2026-05-09 02:19 | 40.16068 | -82.91164 | 8846 ft | 306 kts | 29° |
| 2026-05-09 02:19 | 40.17889 | -82.89728 | 9474 ft | 311 kts | 29° |
| 2026-05-09 02:20 | 40.19754 | -82.88255 | 10233 ft | 311 kts | 29° |
| 2026-05-09 02:20 | 40.21607 | -82.86792 | 10799 ft | 319 kts | 30° |
| 2026-05-09 02:20 | 40.23546 | -82.85261 | 11298 ft | 329 kts | 30° |
| 2026-05-09 02:20 | 40.25520 | -82.83706 | 11789 ft | 339 kts | 31° |
| 2026-05-09 02:21 | 40.27583 | -82.82074 | 12133 ft | 356 kts | 30° |
| 2026-05-09 02:21 | 40.29756 | -82.80353 | 12592 ft | 368 kts | 29° |
| 2026-05-09 02:21 | 40.31959 | -82.78611 | 13264 ft | 374 kts | 27° |
| 2026-05-09 02:21 | 40.34219 | -82.76826 | 13927 ft | 381 kts | 26° |
| 2026-05-09 02:22 | 40.36481 | -82.75046 | 14617 ft | 385 kts | 26° |
| 2026-05-09 02:22 | 40.38792 | -82.73238 | 15305 ft | 389 kts | 25° |
| 2026-05-09 02:22 | 40.41172 | -82.71556 | 16063 ft | 388 kts | 20° |
| 2026-05-09 02:22 | 40.43608 | -82.70104 | 16758 ft | 389 kts | 17° |
| 2026-05-09 02:23 | 40.46122 | -82.68758 | 17354 ft | 394 kts | 15° |
| 2026-05-09 02:23 | 40.48709 | -82.67432 | 17994 ft | 397 kts | 14° |
| 2026-05-09 02:23 | 40.51298 | -82.66107 | 18559 ft | 403 kts | 15° |
| 2026-05-09 02:23 | 40.53938 | -82.64738 | 19165 ft | 408 kts | 15° |
| 2026-05-09 02:24 | 40.56554 | -82.63235 | 19767 ft | 415 kts | 19° |
| 2026-05-09 02:24 | 40.59135 | -82.61493 | 20289 ft | 422 kts | 21° |
| 2026-05-09 02:24 | 40.61715 | -82.59602 | 20854 ft | 427 kts | 22° |
| 2026-05-09 02:24 | 40.64322 | -82.57637 | 21390 ft | 432 kts | 22° |
| 2026-05-09 02:25 | 40.66927 | -82.55666 | 21890 ft | 437 kts | 22° |
| 2026-05-09 02:25 | 40.69576 | -82.53667 | 22365 ft | 442 kts | 22° |
| 2026-05-09 02:25 | 40.72239 | -82.51668 | 22903 ft | 444 kts | 22° |
| 2026-05-09 02:25 | 40.74961 | -82.49633 | 23351 ft | 450 kts | 22° |
| 2026-05-09 02:26 | 40.77676 | -82.47610 | 23855 ft | 453 kts | 21° |
| 2026-05-09 02:26 | 40.80425 | -82.45565 | 24394 ft | 455 kts | 21° |
| 2026-05-09 02:26 | 40.83203 | -82.43501 | 24876 ft | 459 kts | 20° |
| 2026-05-09 02:26 | 40.86003 | -82.41421 | 25276 ft | 464 kts | 20° |
| 2026-05-09 02:27 | 40.88806 | -82.39340 | 25827 ft | 465 kts | 21° |
| 2026-05-09 02:27 | 40.91605 | -82.37244 | 26462 ft | 464 kts | 20° |
| 2026-05-09 02:27 | 40.94458 | -82.35112 | 26732 ft | 472 kts | 20° |
| 2026-05-09 02:27 | 40.97310 | -82.32980 | 27255 ft | 473 kts | 20° |
| 2026-05-09 02:28 | 41.00180 | -82.30838 | 27729 ft | 474 kts | 21° |
| 2026-05-09 02:28 | 41.03083 | -82.28664 | 28098 ft | 478 kts | 20° |
| 2026-05-09 02:28 | 41.06027 | -82.26466 | 28498 ft | 481 kts | 20° |
| 2026-05-09 02:28 | 41.08910 | -82.24312 | 28847 ft | 484 kts | 20° |
| 2026-05-09 02:29 | 41.11852 | -82.22111 | 29192 ft | 487 kts | 20° |
| 2026-05-09 02:29 | 41.14807 | -82.19885 | 29744 ft | 485 kts | 20° |
| 2026-05-09 02:29 | 41.17762 | -82.17663 | 29945 ft | 489 kts | 19° |
| 2026-05-09 02:29 | 41.20718 | -82.15445 | 30165 ft | 494 kts | 19° |
| 2026-05-09 02:30 | 41.23745 | -82.13176 | 30465 ft | 496 kts | 19° |
| 2026-05-09 02:30 | 41.26734 | -82.10925 | 30654 ft | 501 kts | 20° |
| 2026-05-09 02:30 | 41.29722 | -82.08407 | 30943 ft | 511 kts | 25° |
| 2026-05-09 02:30 | 41.32560 | -82.05471 | 31396 ft | 517 kts | 31° |
| 2026-05-09 02:31 | 41.35180 | -82.02187 | 31792 ft | 524 kts | 37° |
| 2026-05-09 02:31 | 41.37577 | -81.98551 | 32215 ft | 530 kts | 43° |
| 2026-05-09 02:31 | 41.39776 | -81.94504 | 32593 ft | 536 kts | 49° |
| 2026-05-09 02:31 | 41.41674 | -81.90202 | 32863 ft | 543 kts | 57° |
| 2026-05-09 02:32 | 41.42934 | -81.85429 | 32880 ft | 550 kts | 75° |
| 2026-05-09 02:32 | 41.43362 | -81.80355 | 32890 ft | 550 kts | 86° |
| 2026-05-09 02:32 | 41.43397 | -81.75266 | 32879 ft | 550 kts | 89° |
| 2026-05-09 02:33 | 41.43511 | -81.65084 | 32881 ft | 551 kts | 85° |
| 2026-05-09 02:33 | 41.44418 | -81.55032 | 32880 ft | 548 kts | 77° |
| 2026-05-09 02:34 | 41.45992 | -81.45071 | 32890 ft | 547 kts | 72° |
| 2026-05-09 02:34 | 41.47868 | -81.35310 | 32894 ft | 545 kts | 70° |
| 2026-05-09 02:35 | 41.49815 | -81.25588 | 32891 ft | 546 kts | 71° |
| 2026-05-09 02:35 | 41.51220 | -81.15586 | 32892 ft | 551 kts | 85° |
| 2026-05-09 02:36 | 41.50997 | -81.05293 | 32891 ft | 551 kts | 96° |
| 2026-05-09 02:36 | 41.50095 | -80.95196 | 32892 ft | 551 kts | 98° |
| 2026-05-09 02:37 | 41.49075 | -80.85060 | 32891 ft | 551 kts | 98° |
| 2026-05-09 02:37 | 41.48087 | -80.74995 | 32894 ft | 552 kts | 97° |
| 2026-05-09 02:38 | 41.47127 | -80.64852 | 32891 ft | 550 kts | 97° |
| 2026-05-09 02:38 | 41.46188 | -80.54689 | 32900 ft | 550 kts | 97° |
| 2026-05-09 02:39 | 41.45261 | -80.44662 | 32918 ft | 551 kts | 97° |
| 2026-05-09 02:39 | 41.44312 | -80.34472 | 32890 ft | 551 kts | 97° |
| 2026-05-09 02:40 | 41.43368 | -80.24403 | 32901 ft | 551 kts | 97° |
| 2026-05-09 02:40 | 41.42409 | -80.14288 | 32913 ft | 551 kts | 97° |
| 2026-05-09 02:41 | 41.41434 | -80.04141 | 32912 ft | 551 kts | 97° |
| 2026-05-09 02:41 | 41.40455 | -79.94038 | 32911 ft | 550 kts | 98° |
| 2026-05-09 02:42 | 41.39464 | -79.83935 | 32918 ft | 552 kts | 97° |
| 2026-05-09 02:42 | 41.38463 | -79.73837 | 32914 ft | 552 kts | 97° |
| 2026-05-09 02:43 | 41.37458 | -79.63758 | 32915 ft | 552 kts | 97° |
| 2026-05-09 02:43 | 41.36443 | -79.53663 | 32908 ft | 552 kts | 97° |
| 2026-05-09 02:44 | 41.35417 | -79.43548 | 32913 ft | 552 kts | 97° |
| 2026-05-09 02:44 | 41.34384 | -79.33438 | 32912 ft | 551 kts | 98° |
| 2026-05-09 02:45 | 41.33338 | -79.23328 | 32910 ft | 553 kts | 98° |
| 2026-05-09 02:45 | 41.32286 | -79.13226 | 32926 ft | 552 kts | 98° |
| 2026-05-09 02:46 | 41.31229 | -79.03146 | 32918 ft | 553 kts | 98° |
| 2026-05-09 02:46 | 41.30153 | -78.93012 | 32918 ft | 554 kts | 98° |
| 2026-05-09 02:47 | 41.29069 | -78.82883 | 32923 ft | 553 kts | 98° |
| 2026-05-09 02:47 | 41.27979 | -78.72780 | 32916 ft | 552 kts | 98° |
| 2026-05-09 02:48 | 41.26885 | -78.62709 | 32937 ft | 551 kts | 98° |
| 2026-05-09 02:48 | 41.25786 | -78.52683 | 32931 ft | 552 kts | 98° |
| 2026-05-09 02:49 | 41.24665 | -78.42553 | 32942 ft | 552 kts | 98° |
| 2026-05-09 02:49 | 41.23543 | -78.32482 | 32939 ft | 553 kts | 99° |
| 2026-05-09 02:50 | 41.22416 | -78.22471 | 32934 ft | 552 kts | 99° |
| 2026-05-09 02:50 | 41.21273 | -78.12401 | 32950 ft | 552 kts | 99° |
| 2026-05-09 02:51 | 41.20064 | -78.02329 | 32943 ft | 554 kts | 100° |
| 2026-05-09 02:51 | 41.18791 | -77.92249 | 32935 ft | 554 kts | 100° |
| 2026-05-09 02:52 | 41.17510 | -77.82178 | 32934 ft | 553 kts | 100° |
| 2026-05-09 02:52 | 41.16229 | -77.72131 | 32942 ft | 554 kts | 101° |
| 2026-05-09 02:53 | 41.14949 | -77.62090 | 32943 ft | 552 kts | 100° |
| 2026-05-09 02:53 | 41.13662 | -77.52036 | 32927 ft | 552 kts | 101° |
| 2026-05-09 02:54 | 41.12368 | -77.42018 | 32936 ft | 555 kts | 100° |
| 2026-05-09 02:54 | 41.11063 | -77.31956 | 32945 ft | 552 kts | 101° |
| 2026-05-09 02:55 | 41.09750 | -77.21909 | 32931 ft | 555 kts | 101° |
| 2026-05-09 02:55 | 41.08428 | -77.11901 | 32735 ft | 551 kts | 101° |
| 2026-05-09 02:55 | 41.07772 | -77.06946 | 32542 ft | 545 kts | 101° |
| 2026-05-09 02:56 | 41.07109 | -77.01968 | 32544 ft | 550 kts | 101° |
| 2026-05-09 02:56 | 41.05770 | -76.91946 | 32555 ft | 555 kts | 101° |
| 2026-05-09 02:57 | 41.04395 | -76.81699 | 31635 ft | 586 kts | 101° |
| 2026-05-09 02:57 | 41.03675 | -76.76387 | 31481 ft | 588 kts | 100° |
| 2026-05-09 02:57 | 41.03153 | -76.72549 | 31381 ft | 572 kts | 100° |
| 2026-05-09 02:57 | 41.02444 | -76.67436 | 30957 ft | 557 kts | 101° |
| 2026-05-09 02:58 | 41.01591 | -76.62485 | 30265 ft | 549 kts | 104° |
| 2026-05-09 02:58 | 41.00571 | -76.57646 | 29015 ft | 553 kts | 108° |
| 2026-05-09 02:58 | 40.99428 | -76.52831 | 27566 ft | 558 kts | 109° |
| 2026-05-09 02:58 | 40.98202 | -76.47961 | 26105 ft | 560 kts | 109° |
| 2026-05-09 02:59 | 40.96945 | -76.43081 | 24721 ft | 559 kts | 110° |
| 2026-05-09 02:59 | 40.95725 | -76.38342 | 24106 ft | 541 kts | 110° |
| 2026-05-09 02:59 | 40.94533 | -76.33667 | 23502 ft | 524 kts | 110° |
| 2026-05-09 02:59 | 40.93391 | -76.29137 | 22244 ft | 523 kts | 110° |
| 2026-05-09 03:00 | 40.92259 | -76.24603 | 21255 ft | 514 kts | 109° |
| 2026-05-09 03:00 | 40.91166 | -76.20187 | 20370 ft | 504 kts | 109° |
| 2026-05-09 03:00 | 40.90089 | -76.15811 | 19436 ft | 495 kts | 109° |
| 2026-05-09 03:00 | 40.89059 | -76.11615 | 19043 ft | 479 kts | 109° |
| 2026-05-09 03:01 | 40.88043 | -76.07468 | 18681 ft | 467 kts | 109° |
| 2026-05-09 03:01 | 40.87043 | -76.03390 | 17964 ft | 466 kts | 109° |
| 2026-05-09 03:01 | 40.86056 | -75.99371 | 17237 ft | 465 kts | 109° |
| 2026-05-09 03:01 | 40.85057 | -75.95308 | 16529 ft | 462 kts | 109° |
| 2026-05-09 03:02 | 40.84072 | -75.91303 | 15850 ft | 451 kts | 109° |
| 2026-05-09 03:02 | 40.83126 | -75.87467 | 15193 ft | 439 kts | 109° |
| 2026-05-09 03:02 | 40.82181 | -75.83639 | 14533 ft | 428 kts | 109° |
| 2026-05-09 03:02 | 40.81268 | -75.79961 | 13902 ft | 418 kts | 109° |
| 2026-05-09 03:03 | 40.80381 | -75.76386 | 13259 ft | 409 kts | 109° |
| 2026-05-09 03:03 | 40.79504 | -75.72848 | 13027 ft | 401 kts | 109° |
| 2026-05-09 03:03 | 40.78640 | -75.69342 | 13016 ft | 405 kts | 109° |
| 2026-05-09 03:03 | 40.77764 | -75.65804 | 12990 ft | 407 kts | 109° |
| 2026-05-09 03:04 | 40.76880 | -75.62257 | 13012 ft | 407 kts | 109° |
| 2026-05-09 03:04 | 40.75997 | -75.58719 | 13004 ft | 406 kts | 109° |
| 2026-05-09 03:04 | 40.75109 | -75.55175 | 12981 ft | 405 kts | 109° |
| 2026-05-09 03:04 | 40.74230 | -75.51681 | 13005 ft | 409 kts | 109° |
| 2026-05-09 03:05 | 40.73338 | -75.48119 | 13011 ft | 407 kts | 109° |
| 2026-05-09 03:05 | 40.72450 | -75.44549 | 13015 ft | 407 kts | 108° |
| 2026-05-09 03:05 | 40.71648 | -75.40986 | 13020 ft | 409 kts | 105° |
| 2026-05-09 03:05 | 40.70919 | -75.37351 | 13018 ft | 410 kts | 104° |
| 2026-05-09 03:06 | 40.70222 | -75.33690 | 13011 ft | 409 kts | 104° |
| 2026-05-09 03:06 | 40.69536 | -75.30064 | 13010 ft | 409 kts | 105° |
| 2026-05-09 03:06 | 40.68838 | -75.26421 | 13009 ft | 409 kts | 105° |
| 2026-05-09 03:06 | 40.68136 | -75.22812 | 12760 ft | 405 kts | 105° |
| 2026-05-09 03:07 | 40.67432 | -75.19222 | 12114 ft | 405 kts | 105° |
| 2026-05-09 03:07 | 40.66587 | -75.15739 | 11423 ft | 405 kts | 113° |
| 2026-05-09 03:07 | 40.65227 | -75.12513 | 10892 ft | 396 kts | 128° |
| 2026-05-09 03:07 | 40.63735 | -75.09500 | 10621 ft | 389 kts | 122° |
| 2026-05-09 03:08 | 40.62520 | -75.06358 | 10356 ft | 388 kts | 117° |
| 2026-05-09 03:08 | 40.61426 | -75.03133 | 10090 ft | 385 kts | 115° |
| 2026-05-09 03:08 | 40.60353 | -74.99925 | 9991 ft | 373 kts | 116° |
| 2026-05-09 03:08 | 40.59320 | -74.96950 | 9992 ft | 347 kts | 117° |
| 2026-05-09 03:09 | 40.58335 | -74.94191 | 10009 ft | 326 kts | 118° |
| 2026-05-09 03:09 | 40.57359 | -74.91550 | 10003 ft | 310 kts | 119° |
| 2026-05-09 03:09 | 40.56396 | -74.89047 | 10008 ft | 305 kts | 119° |
| 2026-05-09 03:09 | 40.55426 | -74.86567 | 10007 ft | 305 kts | 120° |
| 2026-05-09 03:10 | 40.54461 | -74.84109 | 10010 ft | 305 kts | 119° |
| 2026-05-09 03:10 | 40.53497 | -74.81625 | 10013 ft | 305 kts | 119° |
| 2026-05-09 03:10 | 40.52534 | -74.79132 | 10015 ft | 305 kts | 119° |
| 2026-05-09 03:10 | 40.51575 | -74.76656 | 10018 ft | 304 kts | 119° |
| 2026-05-09 03:11 | 40.50608 | -74.74168 | 10019 ft | 305 kts | 119° |
| 2026-05-09 03:11 | 40.49640 | -74.71677 | 10019 ft | 305 kts | 119° |
| 2026-05-09 03:11 | 40.48687 | -74.69204 | 10018 ft | 305 kts | 119° |
| 2026-05-09 03:11 | 40.47724 | -74.66720 | 10019 ft | 305 kts | 120° |
| 2026-05-09 03:12 | 40.46749 | -74.64216 | 10017 ft | 305 kts | 119° |
| 2026-05-09 03:12 | 40.45787 | -74.61735 | 10018 ft | 305 kts | 119° |
| 2026-05-09 03:12 | 40.45015 | -74.59171 | 10013 ft | 308 kts | 102° |
| 2026-05-09 03:12 | 40.45050 | -74.56368 | 10022 ft | 308 kts | 76° |
| 2026-05-09 03:13 | 40.46293 | -74.50979 | 9941 ft | 302 kts | 69° |
| 2026-05-09 03:13 | 40.46936 | -74.48344 | 9535 ft | 304 kts | 70° |
| 2026-05-09 03:13 | 40.47535 | -74.45668 | 9213 ft | 302 kts | 72° |
| 2026-05-09 03:14 | 40.48091 | -74.43014 | 8881 ft | 301 kts | 72° |
| 2026-05-09 03:14 | 40.48666 | -74.40371 | 8560 ft | 299 kts | 72° |
| 2026-05-09 03:14 | 40.49216 | -74.37753 | 8236 ft | 297 kts | 73° |
| 2026-05-09 03:14 | 40.49742 | -74.35142 | 7915 ft | 295 kts | 73° |
| 2026-05-09 03:15 | 40.50267 | -74.32556 | 7591 ft | 293 kts | 74° |
| 2026-05-09 03:15 | 40.50794 | -74.29970 | 7266 ft | 291 kts | 74° |
| 2026-05-09 03:15 | 40.51309 | -74.27427 | 7034 ft | 287 kts | 74° |
| 2026-05-09 03:15 | 40.51826 | -74.24888 | 7011 ft | 288 kts | 74° |
| 2026-05-09 03:16 | 40.52351 | -74.22330 | 7009 ft | 289 kts | 74° |
| 2026-05-09 03:16 | 40.52876 | -74.19786 | 7009 ft | 289 kts | 74° |
| 2026-05-09 03:16 | 40.53395 | -74.17262 | 6725 ft | 292 kts | 74° |
| 2026-05-09 03:16 | 40.53924 | -74.14665 | 6278 ft | 294 kts | 74° |
| 2026-05-09 03:17 | 40.54460 | -74.12056 | 5926 ft | 292 kts | 74° |
| 2026-05-09 03:17 | 40.54980 | -74.09526 | 5590 ft | 290 kts | 74° |
| 2026-05-09 03:17 | 40.55658 | -74.07028 | 5341 ft | 283 kts | 62° |
| 2026-05-09 03:17 | 40.56746 | -74.05042 | 5476 ft | 256 kts | 38° |
| 2026-05-09 03:18 | 40.58225 | -74.03913 | 5257 ft | 249 kts | 13° |
| 2026-05-09 03:18 | 40.60023 | -74.03576 | 4617 ft | 269 kts | 358° |
| 2026-05-09 03:18 | 40.61906 | -74.03487 | 4158 ft | 271 kts | 358° |
| 2026-05-09 03:18 | 40.63777 | -74.03335 | 4068 ft | 265 kts | 359° |
| 2026-05-09 03:19 | 40.65607 | -74.03188 | 3938 ft | 266 kts | 0° |
| 2026-05-09 03:19 | 40.67452 | -74.03023 | 4118 ft | 266 kts | 1° |
| 2026-05-09 03:19 | 40.69321 | -74.02806 | 4109 ft | 270 kts | 3° |
| 2026-05-09 03:19 | 40.71188 | -74.02511 | 4023 ft | 266 kts | 6° |
| 2026-05-09 03:20 | 40.73041 | -74.02030 | 4052 ft | 270 kts | 11° |
| 2026-05-09 03:20 | 40.74840 | -74.01303 | 4099 ft | 272 kts | 18° |
| 2026-05-09 03:20 | 40.76583 | -74.00278 | 4056 ft | 276 kts | 23° |
| 2026-05-09 03:20 | 40.78309 | -73.99174 | 3985 ft | 273 kts | 24° |
| 2026-05-09 03:21 | 40.79975 | -73.98099 | 4009 ft | 259 kts | 23° |
| 2026-05-09 03:21 | 40.81575 | -73.97101 | 3857 ft | 251 kts | 22° |
| 2026-05-09 03:21 | 40.83156 | -73.96169 | 3651 ft | 250 kts | 20° |
| 2026-05-09 03:21 | 40.84799 | -73.95261 | 3502 ft | 253 kts | 19° |
| 2026-05-09 03:22 | 40.86404 | -73.94421 | 3303 ft | 243 kts | 18° |
| 2026-05-09 03:22 | 40.87857 | -73.93441 | 3281 ft | 232 kts | 35° |
| 2026-05-09 03:22 | 40.88947 | -73.91849 | 3059 ft | 232 kts | 55° |
| 2026-05-09 03:22 | 40.89793 | -73.90031 | 2826 ft | 230 kts | 58° |
| 2026-05-09 03:23 | 40.90607 | -73.88245 | 2533 ft | 229 kts | 57° |
| 2026-05-09 03:23 | 40.91440 | -73.86442 | 2245 ft | 228 kts | 57° |
| 2026-05-09 03:23 | 40.92265 | -73.84660 | 2024 ft | 225 kts | 58° |
| 2026-05-09 03:23 | 40.93080 | -73.82890 | 2005 ft | 226 kts | 57° |
| 2026-05-09 03:24 | 40.93912 | -73.81111 | 2003 ft | 226 kts | 57° |
| 2026-05-09 03:24 | 40.94737 | -73.79361 | 2003 ft | 226 kts | 57° |
| 2026-05-09 03:24 | 40.95493 | -73.77535 | 2000 ft | 225 kts | 72° |
| 2026-05-09 03:24 | 40.95578 | -73.75484 | 2004 ft | 223 kts | 105° |
| 2026-05-09 03:25 | 40.94839 | -73.73752 | 1985 ft | 213 kts | 138° |
| 2026-05-09 03:25 | 40.93600 | -73.72894 | 1890 ft | 197 kts | 174° |
| 2026-05-09 03:25 | 40.92318 | -73.73190 | 1852 ft | 187 kts | 212° |
| 2026-05-09 03:25 | 40.91430 | -73.74421 | 1849 ft | 186 kts | 237° |
| 2026-05-09 03:26 | 40.90729 | -73.75875 | 1849 ft | 187 kts | 238° |
| 2026-05-09 03:26 | 40.89903 | -73.77202 | 1850 ft | 187 kts | 223° |
| 2026-05-09 03:26 | 40.88880 | -73.78261 | 1855 ft | 183 kts | 217° |
| 2026-05-09 03:26 | 40.87872 | -73.79208 | 1853 ft | 178 kts | 216° |
| 2026-05-09 03:27 | 40.86832 | -73.80128 | 1852 ft | 178 kts | 214° |
| 2026-05-09 03:27 | 40.85801 | -73.81014 | 1753 ft | 177 kts | 214° |
| 2026-05-09 03:27 | 40.84793 | -73.81863 | 1529 ft | 162 kts | 213° |
| 2026-05-09 03:27 | 40.83879 | -73.82626 | 1279 ft | 149 kts | 214° |
| 2026-05-09 03:28 | 40.83026 | -73.83340 | 1093 ft | 142 kts | 214° |
| 2026-05-09 03:28 | 40.82191 | -73.84044 | 888 ft | 145 kts | 213° |
| 2026-05-09 03:28 | 40.81343 | -73.84753 | 681 ft | 142 kts | 213° |
| 2026-05-09 03:28 | 40.80500 | -73.85467 | 513 ft | 144 kts | 213° |
| 2026-05-09 03:29 | 40.79649 | -73.86169 | 298 ft | 142 kts | 211° |
| 2026-05-09 03:29 | 40.78805 | -73.86848 | 113 ft | 142 kts | 212° |
| 2026-05-09 03:29 | 40.78007 | -73.87510 | 11 ft | 127 kts | 212° |
| 2026-05-09 03:29 | 40.77399 | -73.88013 | 14 ft | 64 kts | 212° |
| 2026-05-09 03:30 | 40.77202 | -73.88178 | 14 ft | 22 kts | 215° |
| 2026-05-09 03:30 | 40.77083 | -73.88340 | 14 ft | 19 kts | 278° |
| 2026-05-09 03:30 | 40.77112 | -73.88390 | 14 ft | 0 kts | 347° |
| 2026-05-09 03:30 | 40.77127 | -73.88388 | 14 ft | 7 kts | 12° |
| 2026-05-09 03:31 | 40.77198 | -73.88394 | 13 ft | 11 kts | 347° |
| 2026-05-09 03:31 | 40.77275 | -73.88430 | 12 ft | 11 kts | 335° |
| 2026-05-09 03:31 | 40.77312 | -73.88432 | 12 ft | 2 kts | 22° |
| 2026-05-09 03:31 | 40.77322 | -73.88428 | 11 ft | 2 kts | 18° |
| 2026-05-09 03:32 | 40.77332 | -73.88423 | 11 ft | 0 kts | 20° |